Time;durP1;ratioP1;P1;durP2;ratioP2;P2;SDS_P1;SDS_P2;PMS_P1;PMS_P2;Temp;Humidity;BMP_temperature;BMP_pressure;BME280_temperature;BME280_humidity;BME280_pressure;Samples;Min_cycle;Max_cycle;Signal;HPM_P1;HPM_P2
2022/11/21 00:00:31;;;;;;;45.37;17.47;;;;;;;;;;5033888;28;20481;-84
2022/11/21 00:03:00;;;;;;;37.57;16.37;;;;;;;;;;5035453;28;20029;-84
2022/11/21 00:05:26;;;;;;;38.87;16.67;;;;;;;;;;5034085;28;20065;-83
2022/11/21 00:07:53;;;;;;;35.73;16.13;;;;;;;;;;5034446;28;20037;-84
2022/11/21 00:10:18;;;;;;;35.20;17.07;;;;;;;;;;5051107;28;20022;-84
2022/11/21 00:12:44;;;;;;;37.57;17.70;;;;;;;;;;5033292;28;20453;-84
2022/11/21 00:15:09;;;;;;;41.73;16.33;;;;;;;;;;5034825;28;20042;-84
2022/11/21 00:17:35;;;;;;;30.60;14.83;;;;;;;;;;5034106;28;20473;-84
2022/11/21 00:20:00;;;;;;;36.87;15.73;;;;;;;;;;5034255;28;20086;-82
2022/11/21 00:22:26;;;;;;;35.03;16.40;;;;;;;;;;5035269;28;20105;-85
2022/11/21 00:24:51;;;;;;;34.47;16.57;;;;;;;;;;5050146;28;20025;-83
2022/11/21 00:27:17;;;;;;;34.73;15.70;;;;;;;;;;5034619;28;20071;-85
2022/11/21 00:29:42;;;;;;;35.40;16.57;;;;;;;;;;5032460;28;20500;-84
2022/11/21 00:32:08;;;;;;;31.67;15.07;;;;;;;;;;5033670;28;20030;-83
2022/11/21 00:34:33;;;;;;;31.87;14.27;;;;;;;;;;5034548;28;20018;-85
2022/11/21 00:36:58;;;;;;;26.63;12.93;;;;;;;;;;5035161;28;20026;-83
2022/11/21 00:39:24;;;;;;;26.67;13.40;;;;;;;;;;5035459;28;20061;-82
2022/11/21 00:41:49;;;;;;;32.03;14.10;;;;;;;;;;5032889;28;20049;-83
2022/11/21 00:44:15;;;;;;;24.80;12.27;;;;;;;;;;5033061;28;20112;-84
2022/11/21 00:46:40;;;;;;;24.20;11.37;;;;;;;;;;5032812;28;20033;-83
2022/11/21 00:49:06;;;;;;;28.27;12.77;;;;;;;;;;5033323;28;20029;-85
2022/11/21 00:51:31;;;;;;;25.10;12.70;;;;;;;;;;5032869;28;20375;-83
2022/11/21 00:53:57;;;;;;;23.67;11.37;;;;;;;;;;5033014;28;20030;-83
2022/11/21 00:56:22;;;;;;;23.83;10.70;;;;;;;;;;5032780;28;20350;-82
2022/11/21 00:58:48;;;;;;;21.47;10.83;;;;;;;;;;5032472;28;20029;-83
2022/11/21 01:01:15;;;;;;;23.97;11.93;;;;;;;;;;5034185;28;20021;-82
2022/11/21 01:03:41;;;;;;;18.40;10.27;;;;;;;;;;5031787;28;20359;-83
2022/11/21 01:06:09;;;;;;;21.00;10.43;;;;;;;;;;5033985;28;20053;-83
2022/11/21 01:08:37;;;;;;;18.37;9.87;;;;;;;;;;5033463;28;20101;-82
2022/11/21 01:11:09;;;;;;;25.30;11.77;;;;;;;;;;5051049;28;20496;-83
2022/11/21 01:13:35;;;;;;;19.45;9.80;;;;;;;;;;5032883;28;20548;-82
2022/11/21 01:16:09;;;;;;;18.03;10.27;;;;;;;;;;5032506;28;20092;-82
2022/11/21 01:18:35;;;;;;;18.23;9.27;;;;;;;;;;5033764;28;20071;-83
2022/11/21 01:21:07;;;;;;;20.33;9.87;;;;;;;;;;5033168;28;20550;-85
2022/11/21 01:23:33;;;;;;;16.85;8.05;;;;;;;;;;5031608;28;20032;-85
2022/11/21 01:26:06;;;;;;;16.43;8.40;;;;;;;;;;5031488;28;20029;-85
2022/11/21 01:28:32;;;;;;;16.70;8.80;;;;;;;;;;5032982;28;20040;-85
2022/11/21 01:31:12;;;;;;;16.20;8.30;;;;;;;;;;5031818;28;20029;-84
2022/11/21 01:33:38;;;;;;;19.37;8.97;;;;;;;;;;5033322;28;20069;-84
2022/11/21 01:36:07;;;;;;;19.80;9.33;;;;;;;;;;5031866;28;20111;-84
2022/11/21 01:38:33;;;;;;;15.20;8.83;;;;;;;;;;5033081;28;20116;-83
2022/11/21 01:40:58;;;;;;;19.93;8.23;;;;;;;;;;5030801;28;20085;-84
2022/11/21 01:43:24;;;;;;;15.83;7.73;;;;;;;;;;5031159;28;20547;-84
2022/11/21 01:45:54;;;;;;;19.53;8.60;;;;;;;;;;5031534;28;20116;-84
2022/11/21 01:48:25;;;;;;;13.87;7.57;;;;;;;;;;5031732;28;20075;-84
2022/11/21 01:50:52;;;;;;;15.73;7.00;;;;;;;;;;5047582;28;20037;-84
2022/11/21 01:53:18;;;;;;;15.27;7.00;;;;;;;;;;5033291;28;20521;-84
2022/11/21 01:55:44;;;;;;;16.73;7.53;;;;;;;;;;5047700;28;20026;-84
2022/11/21 01:58:11;;;;;;;18.00;7.60;;;;;;;;;;5047447;28;20036;-83
2022/11/21 02:00:39;;;;;;;16.57;8.13;;;;;;;;;;5047612;28;20056;-85
2022/11/21 02:03:10;;;;;;;16.47;8.17;;;;;;;;;;5047667;28;20029;-83
2022/11/21 02:05:37;;;;;;;17.20;7.73;;;;;;;;;;5047995;28;20108;-84
2022/11/21 02:08:14;;;;;;;13.10;7.33;;;;;;;;;;5047858;28;20025;-84
2022/11/21 02:10:44;;;;;;;13.03;7.30;;;;;;;;;;5049050;28;20029;-83
2022/11/21 02:13:11;;;;;;;15.03;7.87;;;;;;;;;;5032513;28;20043;-83
2022/11/21 02:15:36;;;;;;;14.40;7.20;;;;;;;;;;5033327;28;20037;-84
2022/11/21 02:18:04;;;;;;;13.10;7.33;;;;;;;;;;5031969;28;20052;-83
2022/11/21 02:20:30;;;;;;;15.67;7.80;;;;;;;;;;5030308;28;20037;-84
2022/11/21 02:23:27;;;;;;;16.03;6.23;;;;;;;;;;5046254;28;20124;-84
2022/11/21 02:25:54;;;;;;;16.33;8.60;;;;;;;;;;5024550;28;20034;-85
2022/11/21 02:28:22;;;;;;;14.50;7.03;;;;;;;;;;5012211;28;20030;-83
2022/11/21 02:30:48;;;;;;;14.13;6.77;;;;;;;;;;5010914;28;20133;-84
2022/11/21 02:33:15;;;;;;;15.10;7.60;;;;;;;;;;5011215;28;20610;-84
2022/11/21 02:35:41;;;;;;;17.03;7.23;;;;;;;;;;5010896;28;20150;-84
2022/11/21 02:38:19;;;;;;;17.53;7.17;;;;;;;;;;5010874;28;20081;-84
2022/11/21 02:40:53;;;;;;;15.43;7.30;;;;;;;;;;5012642;28;20026;-84
2022/11/21 02:43:27;;;;;;;12.67;6.03;;;;;;;;;;5010793;28;20030;-84
2022/11/21 02:45:52;;;;;;;13.27;5.47;;;;;;;;;;5010771;28;20030;-84
2022/11/21 02:48:18;;;;;;;12.27;6.27;;;;;;;;;;5010802;28;20037;-83
2022/11/21 02:50:46;;;;;;;14.37;6.73;;;;;;;;;;5012279;28;20484;-84
2022/11/21 02:53:14;;;;;;;9.53;6.27;;;;;;;;;;4994264;28;20037;-84
2022/11/21 02:55:40;;;;;;;10.87;5.83;;;;;;;;;;5012120;28;20034;-84
2022/11/21 02:58:06;;;;;;;11.33;6.00;;;;;;;;;;5011311;28;20527;-84
2022/11/21 03:00:33;;;;;;;11.73;5.77;;;;;;;;;;5011919;28;20034;-83
2022/11/21 03:02:59;;;;;;;11.47;6.73;;;;;;;;;;5010772;28;20040;-83
2022/11/21 03:05:24;;;;;;;11.83;5.70;;;;;;;;;;5010123;28;20385;-83
2022/11/21 03:07:50;;;;;;;8.63;5.33;;;;;;;;;;5010531;28;20083;-84
2022/11/21 03:10:16;;;;;;;11.60;5.87;;;;;;;;;;5010324;28;20064;-83
2022/11/21 03:12:43;;;;;;;11.43;5.03;;;;;;;;;;5011773;28;20389;-83
2022/11/21 03:15:12;;;;;;;12.97;6.70;;;;;;;;;;5011425;28;20374;-83
2022/11/21 03:17:37;;;;;;;10.77;6.03;;;;;;;;;;5010315;28;20481;-84
2022/11/21 03:20:04;;;;;;;11.63;6.40;;;;;;;;;;5011278;28;20099;-84
2022/11/21 03:22:29;;;;;;;17.33;6.20;;;;;;;;;;5012015;28;20092;-84
2022/11/21 03:24:55;;;;;;;11.80;5.87;;;;;;;;;;5010997;28;20030;-84
2022/11/21 03:27:20;;;;;;;10.27;5.50;;;;;;;;;;5026682;28;20504;-83
2022/11/21 03:29:45;;;;;;;10.20;5.00;;;;;;;;;;5031205;28;20037;-84
2022/11/21 03:32:11;;;;;;;8.40;4.77;;;;;;;;;;5030920;28;20029;-84
2022/11/21 03:34:36;;;;;;;9.33;5.30;;;;;;;;;;5031843;28;20029;-85
2022/11/21 03:37:02;;;;;;;10.67;5.67;;;;;;;;;;5030412;28;20036;-84
2022/11/21 03:39:31;;;;;;;10.13;5.73;;;;;;;;;;5030234;28;20464;-85
2022/11/21 03:41:56;;;;;;;7.60;4.67;;;;;;;;;;5031240;28;20053;-84
2022/11/21 03:44:22;;;;;;;8.80;5.00;;;;;;;;;;5030305;28;20385;-84
2022/11/21 03:46:48;;;;;;;10.03;5.13;;;;;;;;;;5031956;28;20044;-84
2022/11/21 03:49:15;;;;;;;9.47;5.07;;;;;;;;;;5031639;28;20153;-83
2022/11/21 03:51:43;;;;;;;9.90;4.60;;;;;;;;;;5030714;28;20470;-84
2022/11/21 03:54:08;;;;;;;9.77;4.80;;;;;;;;;;5031011;28;20117;-84
2022/11/21 03:56:34;;;;;;;9.03;4.90;;;;;;;;;;5029993;28;20061;-84
2022/11/21 03:59:00;;;;;;;8.73;3.93;;;;;;;;;;5046711;28;20095;-84
2022/11/21 04:01:26;;;;;;;11.53;4.53;;;;;;;;;;5029693;28;20047;-84
2022/11/21 04:03:52;;;;;;;6.30;4.13;;;;;;;;;;5049203;28;20088;-84
2022/11/21 04:06:19;;;;;;;12.17;5.03;;;;;;;;;;5034593;28;20037;-85
2022/11/21 04:08:45;;;;;;;7.30;4.33;;;;;;;;;;5033035;28;20090;-84
2022/11/21 04:11:11;;;;;;;6.67;4.23;;;;;;;;;;5050032;28;20450;-85
2022/11/21 04:13:37;;;;;;;5.33;3.70;;;;;;;;;;5033290;28;20029;-84
2022/11/21 04:16:03;;;;;;;7.57;4.30;;;;;;;;;;5033708;28;20040;-84
2022/11/21 04:18:28;;;;;;;6.43;3.80;;;;;;;;;;5035193;28;20040;-83
2022/11/21 04:20:59;;;;;;;7.93;3.93;;;;;;;;;;5033638;28;20037;-84
2022/11/21 04:23:25;;;;;;;5.67;3.53;;;;;;;;;;5033386;28;20551;-85
2022/11/21 04:25:51;;;;;;;6.23;3.57;;;;;;;;;;5029441;28;20443;-84
2022/11/21 04:28:16;;;;;;;7.43;3.63;;;;;;;;;;5014848;28;20030;-84
2022/11/21 04:30:41;;;;;;;5.23;3.17;;;;;;;;;;5013348;28;20030;-85
2022/11/21 04:33:07;;;;;;;6.57;2.83;;;;;;;;;;5013544;28;20042;-85
2022/11/21 04:35:33;;;;;;;6.73;3.63;;;;;;;;;;5014649;28;20026;-83
2022/11/21 04:37:58;;;;;;;7.07;3.30;;;;;;;;;;5015461;28;20038;-84
2022/11/21 04:40:24;;;;;;;9.57;3.67;;;;;;;;;;5013424;28;20026;-84
2022/11/21 04:42:49;;;;;;;7.47;3.20;;;;;;;;;;5016092;28;20081;-85
2022/11/21 04:45:16;;;;;;;9.17;4.27;;;;;;;;;;5015849;28;20030;-84
2022/11/21 04:47:43;;;;;;;7.37;2.97;;;;;;;;;;5013505;28;20478;-83
2022/11/21 04:50:11;;;;;;;6.33;3.63;;;;;;;;;;5014686;28;20332;-84
2022/11/21 04:52:36;;;;;;;8.13;2.87;;;;;;;;;;5012860;28;20651;-84
2022/11/21 04:55:03;;;;;;;5.83;2.93;;;;;;;;;;5013262;28;20037;-82
2022/11/21 04:57:30;;;;;;;4.43;2.53;;;;;;;;;;5013178;28;20534;-84
2022/11/21 04:59:56;;;;;;;7.07;2.80;;;;;;;;;;5014540;28;20390;-84
2022/11/21 05:02:22;;;;;;;3.10;2.33;;;;;;;;;;5013739;28;20042;-79
2022/11/21 05:04:48;;;;;;;5.63;2.00;;;;;;;;;;5012509;28;20039;-83
2022/11/21 05:07:14;;;;;;;4.20;2.20;;;;;;;;;;5013518;28;20050;-84
2022/11/21 05:09:40;;;;;;;7.93;3.60;;;;;;;;;;5013566;28;20434;-84
2022/11/21 05:14:50;;;;;;;7.07;3.53;;;;;;;;;;5013368;28;20092;-85
2022/11/21 05:17:16;;;;;;;2.80;1.97;;;;;;;;;;5012584;28;20030;-83
2022/11/21 05:19:41;;;;;;;6.27;2.60;;;;;;;;;;5014108;28;20060;-84
2022/11/21 05:22:07;;;;;;;4.17;2.10;;;;;;;;;;5014436;28;20033;-84
2022/11/21 05:24:32;;;;;;;7.53;2.70;;;;;;;;;;5014573;28;20057;-85
2022/11/21 05:26:58;;;;;;;4.27;2.40;;;;;;;;;;5014093;28;20441;-83
2022/11/21 05:29:23;;;;;;;4.50;2.07;;;;;;;;;;5015240;28;20041;-84
2022/11/21 05:31:49;;;;;;;6.97;2.43;;;;;;;;;;5015351;28;20069;-84
2022/11/21 05:34:14;;;;;;;4.70;2.27;;;;;;;;;;5016581;28;20160;-84
2022/11/21 05:36:40;;;;;;;7.37;2.63;;;;;;;;;;5014224;28;20062;-84
2022/11/21 05:39:05;;;;;;;3.50;2.10;;;;;;;;;;5014888;28;20026;-84
2022/11/21 05:41:31;;;;;;;5.30;1.90;;;;;;;;;;5013192;28;20053;-84
2022/11/21 05:43:56;;;;;;;3.63;2.10;;;;;;;;;;5013424;28;20036;-83
2022/11/21 05:46:24;;;;;;;5.63;2.10;;;;;;;;;;5014163;28;20108;-83
2022/11/21 05:48:51;;;;;;;3.07;1.93;;;;;;;;;;5013031;28;20064;-83
2022/11/21 05:51:17;;;;;;;3.13;1.97;;;;;;;;;;5013757;28;20030;-86
2022/11/21 05:53:44;;;;;;;2.90;1.87;;;;;;;;;;5012704;28;20046;-83
2022/11/21 05:56:11;;;;;;;4.33;1.80;;;;;;;;;;5013515;28;20085;-83
2022/11/21 05:58:37;;;;;;;8.60;2.93;;;;;;;;;;4995504;28;20052;-83
2022/11/21 06:01:05;;;;;;;5.20;2.03;;;;;;;;;;5011938;28;20033;-81
2022/11/21 06:03:34;;;;;;;3.17;1.90;;;;;;;;;;4979034;28;20061;-84
2022/11/21 06:06:06;;;;;;;3.47;1.83;;;;;;;;;;5012707;28;20397;-84
2022/11/21 06:08:35;;;;;;;3.13;1.60;;;;;;;;;;5013665;28;20041;-85
2022/11/21 06:11:01;;;;;;;6.03;2.10;;;;;;;;;;5013563;28;20960;-86
2022/11/21 06:13:27;;;;;;;3.13;1.70;;;;;;;;;;5042889;28;20458;-85
2022/11/21 06:15:58;;;;;;;4.90;1.83;;;;;;;;;;5020927;28;20025;-83
2022/11/21 06:18:24;;;;;;;2.77;2.20;;;;;;;;;;5026450;28;20029;-85
2022/11/21 06:20:50;;;;;;;3.60;2.20;;;;;;;;;;5030600;28;20420;-86
2022/11/21 06:23:15;;;;;;;6.37;2.30;;;;;;;;;;5033398;28;20053;-84
2022/11/21 06:25:43;;;;;;;1.60;1.50;;;;;;;;;;5029613;28;20040;-85
2022/11/21 06:28:09;;;;;;;4.77;1.90;;;;;;;;;;5031693;28;20136;-84
2022/11/21 06:30:35;;;;;;;3.87;2.10;;;;;;;;;;5028189;28;20079;-81
2022/11/21 06:33:05;;;;;;;4.60;2.00;;;;;;;;;;5044511;28;20033;-87
2022/11/21 06:35:31;;;;;;;6.07;2.20;;;;;;;;;;5020691;28;20057;-85
2022/11/21 06:37:57;;;;;;;8.43;2.50;;;;;;;;;;5029831;28;20060;-85
2022/11/21 06:40:23;;;;;;;3.70;2.30;;;;;;;;;;5036274;28;20108;-85
2022/11/21 06:42:49;;;;;;;6.57;3.07;;;;;;;;;;5035292;28;20052;-89
2022/11/21 06:45:14;;;;;;;6.50;2.30;;;;;;;;;;5047111;28;20116;-84
2022/11/21 06:47:40;;;;;;;4.17;2.60;;;;;;;;;;5055655;28;20401;-86
2022/11/21 06:50:06;;;;;;;11.27;3.53;;;;;;;;;;5027420;28;20041;-83
2022/11/21 06:52:32;;;;;;;5.93;2.53;;;;;;;;;;5029474;28;20383;-83
2022/11/21 06:55:02;;;;;;;4.63;2.23;;;;;;;;;;5025490;28;20679;-84
2022/11/21 06:57:29;;;;;;;6.47;2.40;;;;;;;;;;5030495;28;20219;-87
2022/11/21 06:59:54;;;;;;;3.73;2.30;;;;;;;;;;5030431;28;20036;-84
2022/11/21 07:02:26;;;;;;;11.30;2.60;;;;;;;;;;5027781;28;20127;-83
2022/11/21 07:04:52;;;;;;;7.47;2.67;;;;;;;;;;5028107;28;20951;-83
2022/11/21 07:07:17;;;;;;;3.97;2.40;;;;;;;;;;5043673;28;20541;-80
2022/11/21 07:09:43;;;;;;;5.23;2.00;;;;;;;;;;5027572;28;20033;-83
2022/11/21 07:14:53;;;;;;;5.47;1.80;;;;;;;;;;5023722;28;20060;-81
2022/11/21 07:17:20;;;;;;;3.43;1.90;;;;;;;;;;5027386;28;20025;-84
2022/11/21 07:19:46;;;;;;;8.60;2.60;;;;;;;;;;5029601;28;20033;-83
2022/11/21 07:22:11;;;;;;;7.13;1.97;;;;;;;;;;5035268;28;20576;-84
2022/11/21 07:24:37;;;;;;;4.90;1.60;;;;;;;;;;5038481;28;20129;-84
2022/11/21 07:27:02;;;;;;;4.77;1.57;;;;;;;;;;5034986;28;20045;-81
2022/11/21 07:29:28;;;;;;;4.17;1.20;;;;;;;;;;5038519;28;20038;-84
2022/11/21 07:31:54;;;;;;;3.73;1.60;;;;;;;;;;5024892;28;20540;-84
2022/11/21 07:34:19;;;;;;;4.67;1.70;;;;;;;;;;5024192;28;20044;-83
2022/11/21 07:36:45;;;;;;;2.67;1.00;;;;;;;;;;5023727;28;20037;-85
2022/11/21 07:39:10;;;;;;;2.37;1.20;;;;;;;;;;5030599;28;20033;-86
2022/11/21 07:41:36;;;;;;;2.13;1.00;;;;;;;;;;5044920;28;20952;-82
2022/11/21 07:44:13;;;;;;;3.00;0.97;;;;;;;;;;5027593;28;20018;-84
2022/11/21 07:46:38;;;;;;;4.73;1.33;;;;;;;;;;5026760;28;20465;-82
2022/11/21 07:49:04;;;;;;;1.13;1.00;;;;;;;;;;5046485;28;20035;-82
2022/11/21 07:51:29;;;;;;;1.63;1.07;;;;;;;;;;5032554;28;20152;-83
2022/11/21 07:53:56;;;;;;;1.30;0.80;;;;;;;;;;5045830;28;20026;-83
2022/11/21 07:56:25;;;;;;;1.60;1.50;;;;;;;;;;5048534;28;20033;-84
2022/11/21 07:58:51;;;;;;;3.87;1.00;;;;;;;;;;5048052;28;20029;-84
2022/11/21 08:01:17;;;;;;;0.93;0.73;;;;;;;;;;5031065;28;20025;-84
2022/11/21 08:03:45;;;;;;;2.27;1.10;;;;;;;;;;5029130;28;20041;-83
2022/11/21 08:06:12;;;;;;;1.17;0.80;;;;;;;;;;5026406;28;20041;-84
2022/11/21 08:08:39;;;;;;;1.40;0.70;;;;;;;;;;5040465;28;20052;-81
2022/11/21 08:11:06;;;;;;;1.77;0.80;;;;;;;;;;5041782;28;20092;-79
2022/11/21 08:13:32;;;;;;;4.00;0.80;;;;;;;;;;5023715;28;21568;-84
2022/11/21 08:15:57;;;;;;;5.30;1.10;;;;;;;;;;5022527;28;20605;-80
2022/11/21 08:18:23;;;;;;;4.37;0.90;;;;;;;;;;5022111;28;20033;-81
2022/11/21 08:20:48;;;;;;;5.43;1.27;;;;;;;;;;5030417;28;20119;-79
2022/11/21 08:23:14;;;;;;;2.20;1.33;;;;;;;;;;5041111;28;20068;-80
2022/11/21 08:25:41;;;;;;;3.37;1.10;;;;;;;;;;5025518;28;20037;-79
2022/11/21 08:28:09;;;;;;;6.53;1.60;;;;;;;;;;5044151;28;20456;-79
2022/11/21 08:30:37;;;;;;;3.13;1.20;;;;;;;;;;5027869;28;20047;-80
2022/11/21 08:33:03;;;;;;;0.90;0.60;;;;;;;;;;5033024;28;20444;-76
2022/11/21 08:35:29;;;;;;;5.03;1.07;;;;;;;;;;5025023;28;20189;-79
2022/11/21 08:37:59;;;;;;;3.77;1.00;;;;;;;;;;5045691;28;20123;-79
2022/11/21 08:40:25;;;;;;;2.13;1.10;;;;;;;;;;5030103;28;20033;-80
2022/11/21 08:43:01;;;;;;;3.53;1.00;;;;;;;;;;5025317;28;20152;-79
2022/11/21 08:45:28;;;;;;;5.77;1.40;;;;;;;;;;5027695;28;20598;-79
2022/11/21 08:47:54;;;;;;;3.63;0.90;;;;;;;;;;5044510;28;20698;-80
2022/11/21 08:50:21;;;;;;;3.20;1.23;;;;;;;;;;5022074;28;20033;-82
2022/11/21 08:52:49;;;;;;;3.10;1.20;;;;;;;;;;5028047;28;20044;-79
2022/11/21 08:55:14;;;;;;;1.77;0.90;;;;;;;;;;5042219;28;20025;-81
2022/11/21 08:57:41;;;;;;;3.03;1.30;;;;;;;;;;5025791;28;20378;-82
2022/11/21 09:00:13;;;;;;;2.37;0.73;;;;;;;;;;5029679;28;20726;-80
2022/11/21 09:02:39;;;;;;;2.00;1.10;;;;;;;;;;5029008;28;20055;-81
2022/11/21 09:05:05;;;;;;;1.90;1.37;;;;;;;;;;5037445;28;20029;-82
2022/11/21 09:07:30;;;;;;;2.37;0.90;;;;;;;;;;5024105;28;20060;-81
2022/11/21 09:09:55;;;;;;;1.03;0.60;;;;;;;;;;5041939;28;20367;-80
2022/11/21 09:12:21;;;;;;;1.13;0.90;;;;;;;;;;5025963;28;20399;-82
2022/11/21 09:20:40;;;;;;;2.40;1.20;;;;;;;;;;4949934;28;20070;-84
2022/11/21 09:23:13;;;;;;;1.60;0.77;;;;;;;;;;4997598;28;20042;-82
2022/11/21 09:25:39;;;;;;;1.30;0.90;;;;;;;;;;5029110;28;20076;-82
2022/11/21 09:28:06;;;;;;;2.00;0.80;;;;;;;;;;5043660;28;20025;-85
2022/11/21 09:30:32;;;;;;;3.20;0.93;;;;;;;;;;5027739;28;20037;-82
2022/11/21 09:33:20;;;;;;;1.47;0.83;;;;;;;;;;5041869;28;20029;-83
2022/11/21 09:35:45;;;;;;;1.60;0.80;;;;;;;;;;5040067;28;20481;-82
2022/11/21 09:38:11;;;;;;;0.77;0.70;;;;;;;;;;5023922;28;20028;-83
2022/11/21 09:40:42;;;;;;;1.73;0.70;;;;;;;;;;5039985;28;20025;-82
2022/11/21 09:43:14;;;;;;;1.33;0.73;;;;;;;;;;5028505;28;20037;-81
2022/11/21 09:46:03;;;;;;;2.83;1.30;;;;;;;;;;5042179;28;20159;-80
2022/11/21 09:48:35;;;;;;;3.13;1.00;;;;;;;;;;5040128;28;20037;-80
2022/11/21 09:51:12;;;;;;;2.10;0.80;;;;;;;;;;5024504;28;20087;-80
2022/11/21 09:53:52;;;;;;;4.00;1.07;;;;;;;;;;5024238;28;20091;-80
2022/11/21 09:56:18;;;;;;;1.10;1.00;;;;;;;;;;5019987;28;20488;-82
2022/11/21 09:58:53;;;;;;;1.67;0.80;;;;;;;;;;5039787;28;20422;-82
2022/11/21 10:01:18;;;;;;;2.00;1.17;;;;;;;;;;5039971;28;20033;-83
2022/11/21 10:03:49;;;;;;;2.60;0.80;;;;;;;;;;5022440;28;20535;-81
2022/11/21 10:06:24;;;;;;;3.87;0.77;;;;;;;;;;5024646;28;20099;-82
2022/11/21 10:09:05;;;;;;;1.20;0.67;;;;;;;;;;5024847;28;20072;-79
2022/11/21 10:15:01;;;;;;;0.97;0.53;;;;;;;;;;5024396;28;20095;-82
2022/11/21 10:17:48;;;;;;;1.27;0.53;;;;;;;;;;5024331;28;20041;-86
2022/11/21 10:20:40;;;;;;;2.10;0.80;;;;;;;;;;5029356;28;20048;-82
2022/11/21 10:23:14;;;;;;;1.95;0.60;;;;;;;;;;5027107;28;20492;-83
2022/11/21 10:25:56;;;;;;;2.60;1.00;;;;;;;;;;5023712;28;20032;-83
2022/11/21 10:28:48;;;;;;;2.95;0.88;;;;;;;;;;5029819;28;20249;-82
2022/11/21 10:31:15;;;;;;;5.90;1.60;;;;;;;;;;5026032;28;20025;-81
2022/11/21 10:33:41;;;;;;;2.03;0.80;;;;;;;;;;5029397;28;20029;-82
2022/11/21 10:36:34;;;;;;;5.80;3.70;;;;;;;;;;5023125;28;20044;-81
2022/11/21 10:39:22;;;;;;;8.63;1.20;;;;;;;;;;5025881;28;20085;-84
2022/11/21 10:42:04;;;;;;;0.97;0.77;;;;;;;;;;5030557;28;20529;-85
2022/11/21 10:47:26;;;;;;;0.70;0.67;;;;;;;;;;5037194;28;20109;-85
2022/11/21 10:49:57;;;;;;;4.67;1.27;;;;;;;;;;5031274;28;20397;-86
2022/11/21 10:52:25;;;;;;;1.23;0.97;;;;;;;;;;5029502;28;20026;-85
2022/11/21 10:55:06;;;;;;;4.07;1.67;;;;;;;;;;5047613;28;20029;-87
2022/11/21 10:57:53;;;;;;;9.93;1.87;;;;;;;;;;5030650;28;20029;-89
2022/11/21 11:00:21;;;;;;;4.80;3.40;;;;;;;;;;5032207;28;20103;-86
2022/11/21 11:02:56;;;;;;;2.07;1.40;;;;;;;;;;5028783;28;20440;-83
2022/11/21 11:05:31;;;;;;;4.03;1.73;;;;;;;;;;5028684;28;20037;-85
2022/11/21 11:08:10;;;;;;;3.33;1.00;;;;;;;;;;5029742;28;20474;-85
2022/11/21 11:11:02;;;;;;;1.87;1.03;;;;;;;;;;5027449;28;20029;-85
2022/11/21 11:14:17;;;;;;;1.60;0.97;;;;;;;;;;5040975;28;20045;-83
2022/11/21 11:16:45;;;;;;;3.50;1.20;;;;;;;;;;5028825;28;20063;-84
2022/11/21 11:19:22;;;;;;;2.77;1.30;;;;;;;;;;5045359;28;20132;-87
2022/11/21 11:21:49;;;;;;;4.43;1.87;;;;;;;;;;5021854;28;20029;-84
2022/11/21 11:24:26;;;;;;;8.17;3.07;;;;;;;;;;5027776;28;20109;-82
2022/11/21 11:26:57;;;;;;;12.67;4.53;;;;;;;;;;5032763;28;20029;-81
2022/11/21 11:29:48;;;;;;;9.65;4.90;;;;;;;;;;5035217;28;20049;-86
2022/11/21 11:32:17;;;;;;;16.73;6.87;;;;;;;;;;5027989;28;20671;-83
2022/11/21 11:34:54;;;;;;;16.83;7.67;;;;;;;;;;5024029;28;20203;-80
2022/11/21 11:37:31;;;;;;;18.27;6.73;;;;;;;;;;5018074;28;20037;-87
2022/11/21 11:40:06;;;;;;;22.10;9.23;;;;;;;;;;5023508;28;20242;-80
2022/11/21 11:48:45;;;;;;;20.63;7.97;;;;;;;;;;5025965;28;20059;-82
2022/11/21 11:51:27;;;;;;;16.20;6.70;;;;;;;;;;5026760;28;20026;-83
2022/11/21 11:53:57;;;;;;;;;;;;;;;;;;5025900;28;20057;-88
2022/11/21 11:56:33;;;;;;;11.27;5.70;;;;;;;;;;5024860;28;20004;-86
2022/11/21 11:59:21;;;;;;;21.10;7.00;;;;;;;;;;5044094;28;20025;-85
2022/11/21 12:02:16;;;;;;;20.40;7.70;;;;;;;;;;5022488;28;20357;-85
2022/11/21 12:04:54;;;;;;;20.40;7.80;;;;;;;;;;5018262;28;20381;-81
2022/11/21 12:07:49;;;;;;;16.23;6.63;;;;;;;;;;5024046;28;20037;-83
2022/11/21 12:12:05;;;;;;;16.80;7.17;;;;;;;;;;5015709;28;20577;-82
2022/11/21 12:13:24;;;;;;;19.23;9.00;;;;;;;;;;5025982;28;20133;-84
2022/11/21 12:15:52;;;;;;;16.13;6.37;;;;;;;;;;5025682;28;20037;-83
2022/11/21 12:18:17;;;;;;;18.87;7.80;;;;;;;;;;5022301;28;20055;-81
2022/11/21 12:21:01;;;;;;;21.37;7.67;;;;;;;;;;5020047;28;20026;-81
2022/11/21 12:23:45;;;;;;;21.03;7.60;;;;;;;;;;5025193;28;20032;-81
2022/11/21 12:26:38;;;;;;;25.17;8.40;;;;;;;;;;5029951;28;20040;-82
2022/11/21 12:29:06;;;;;;;22.70;7.50;;;;;;;;;;5029166;28;20029;-81
2022/11/21 12:31:54;;;;;;;16.93;7.37;;;;;;;;;;5026664;28;20033;-82
2022/11/21 12:34:42;;;;;;;19.33;7.13;;;;;;;;;;5024866;28;20910;-82
2022/11/21 12:37:30;;;;;;;22.00;7.57;;;;;;;;;;5026954;28;20045;-81
2022/11/21 12:40:17;;;;;;;20.07;6.57;;;;;;;;;;5026043;28;20037;-81
2022/11/21 12:43:05;;;;;;;15.70;5.83;;;;;;;;;;5029252;28;20045;-81
2022/11/21 12:45:44;;;;;;;16.67;7.10;;;;;;;;;;5026553;28;20080;-82
2022/11/21 12:54:37;;;;;;;14.13;5.83;;;;;;;;;;5029309;28;20517;-80
2022/11/21 12:57:11;;;;;;;18.23;7.30;;;;;;;;;;5028387;28;20032;-81
2022/11/21 12:59:57;;;;;;;16.67;6.23;;;;;;;;;;5026020;28;20035;-80
2022/11/21 13:02:41;;;;;;;16.00;7.07;;;;;;;;;;5026873;28;20120;-82
2022/11/21 13:05:12;;;;;;;18.57;6.20;;;;;;;;;;5025572;28;20072;-81
2022/11/21 13:07:39;;;;;;;24.92;8.25;;;;;;;;;;5042344;28;20536;-80
2022/11/21 13:10:13;;;;;;;22.50;7.43;;;;;;;;;;5026048;28;20599;-81
2022/11/21 13:12:54;;;;;;;16.63;6.53;;;;;;;;;;5025348;28;20064;-80
2022/11/21 13:15:25;;;;;;;18.27;5.85;;;;;;;;;;5026450;28;20033;-78
2022/11/21 13:18:34;;;;;;;19.27;9.60;;;;;;;;;;5025104;28;20576;-79
2022/11/21 13:21:00;;;;;;;17.57;7.57;;;;;;;;;;5022633;28;20108;-75
2022/11/21 13:23:39;;;;;;;12.00;6.33;;;;;;;;;;5022840;28;20030;-80
2022/11/21 13:26:23;;;;;;;11.93;5.97;;;;;;;;;;5024175;28;20064;-81
2022/11/21 13:28:50;;;;;;;12.37;5.50;;;;;;;;;;5023985;28;20033;-83
2022/11/21 13:31:27;;;;;;;14.10;7.23;;;;;;;;;;5040613;28;20424;-78
2022/11/21 13:33:53;;;;;;;12.83;6.97;;;;;;;;;;5040761;28;20144;-82
2022/11/21 13:36:27;;;;;;;13.97;6.53;;;;;;;;;;5026636;28;20128;-82
2022/11/21 13:38:53;;;;;;;13.50;5.60;;;;;;;;;;5024576;28;20029;-82
2022/11/21 13:44:30;;;;;;;17.40;6.60;;;;;;;;;;5028173;28;20032;-82
2022/11/21 13:47:08;;;;;;;15.77;7.70;;;;;;;;;;5026870;28;20029;-79
2022/11/21 13:49:57;;;;;;;15.03;6.83;;;;;;;;;;5026849;28;20033;-79
2022/11/21 13:52:31;;;;;;;16.03;7.43;;;;;;;;;;5026722;28;20676;-80
2022/11/21 13:55:24;;;;;;;16.53;6.60;;;;;;;;;;5040272;28;21128;-84
2022/11/21 13:58:05;;;;;;;17.23;6.37;;;;;;;;;;5024685;28;20034;-80
2022/11/21 14:00:56;;;;;;;18.10;7.33;;;;;;;;;;5023807;28;20034;-81
2022/11/21 14:03:31;;;;;;;18.23;7.50;;;;;;;;;;5022331;28;20087;-79
2022/11/21 14:06:19;;;;;;;18.97;8.00;;;;;;;;;;5027999;28;20037;-78
2022/11/21 14:09:12;;;;;;;23.37;8.47;;;;;;;;;;5027250;28;20036;-79
2022/11/21 14:11:56;;;;;;;29.00;11.87;;;;;;;;;;5023472;28;20033;-80
2022/11/21 14:14:46;;;;;;;28.73;11.70;;;;;;;;;;5032964;28;20334;-79
2022/11/21 14:17:32;;;;;;;38.50;13.47;;;;;;;;;;5025870;28;20137;-81
2022/11/21 14:20:01;;;;;;;42.63;16.07;;;;;;;;;;5043318;28;20123;-80
2022/11/21 14:22:40;;;;;;;34.13;12.10;;;;;;;;;;5047972;28;20033;-82
2022/11/21 14:25:09;;;;;;;29.80;12.37;;;;;;;;;;5033236;28;20033;-80
2022/11/21 14:27:38;;;;;;;28.83;12.43;;;;;;;;;;5034413;28;20071;-80
2022/11/21 14:30:04;;;;;;;31.03;12.97;;;;;;;;;;5046465;28;20342;-79
2022/11/21 14:32:31;;;;;;;30.80;12.33;;;;;;;;;;5032923;28;20462;-80
2022/11/21 14:35:20;;;;;;;32.67;12.17;;;;;;;;;;5031930;28;20477;-81
2022/11/21 14:37:45;;;;;;;29.57;12.07;;;;;;;;;;5036277;28;20512;-81
2022/11/21 14:40:29;;;;;;;29.43;12.53;;;;;;;;;;5034229;28;20052;-81
2022/11/21 14:42:55;;;;;;;31.83;12.03;;;;;;;;;;5032090;28;20088;-80
2022/11/21 14:45:22;;;;;;;30.23;12.53;;;;;;;;;;5032945;28;20025;-78
2022/11/21 14:47:50;;;;;;;29.63;12.73;;;;;;;;;;5041380;28;20039;-80
2022/11/21 14:50:33;;;;;;;34.43;14.37;;;;;;;;;;5040063;28;20032;-79
2022/11/21 14:53:00;;;;;;;30.70;13.17;;;;;;;;;;5038356;28;20022;-78
2022/11/21 14:55:28;;;;;;;39.50;14.63;;;;;;;;;;5035827;28;20021;-82
2022/11/21 14:57:56;;;;;;;31.30;13.43;;;;;;;;;;5039253;28;20076;-80
2022/11/21 15:00:24;;;;;;;38.10;14.43;;;;;;;;;;5031584;28;20108;-80
2022/11/21 15:02:54;;;;;;;38.70;14.23;;;;;;;;;;5028351;28;20481;-79
2022/11/21 15:05:22;;;;;;;33.03;13.67;;;;;;;;;;5033063;28;20017;-79
2022/11/21 15:07:48;;;;;;;34.03;13.57;;;;;;;;;;5036206;28;20044;-81
2022/11/21 15:10:16;;;;;;;34.37;15.13;;;;;;;;;;5034306;28;20029;-79
2022/11/21 15:12:50;;;;;;;32.87;13.30;;;;;;;;;;5037952;28;20473;-80
2022/11/21 15:15:25;;;;;;;32.03;13.40;;;;;;;;;;5038138;28;20025;-78
2022/11/21 15:17:56;;;;;;;33.00;13.07;;;;;;;;;;5033658;28;20109;-80
2022/11/21 15:20:22;;;;;;;33.90;14.50;;;;;;;;;;5065090;28;20376;-79
2022/11/21 15:22:48;;;;;;;37.33;13.27;;;;;;;;;;5030564;28;20025;-80
2022/11/21 15:25:14;;;;;;;35.23;13.90;;;;;;;;;;5033780;28;20023;-78